Dubuque, Iowa
Current Conditions -  °F | °C
As of 6:53 AM on Monday 20 Oct 2014 (Local Time) from KDBQ Reporting Station
Clear Clear  
Wind Chill: 43°   Ceiling: Unl
Heat Index: 49°   Visibility: 10mi
Dew Point: 43°   Wind: 16mph
Humidity: 80%   Direction: 340°NNW
Pressure: 29.89"   Gusts: NA
Location:  42.5°N, 90.66°W
Report Text: KDBQ 201153Z 34014KT 10SM CLR 09/06 A2989 RMK AO2 SLP123 T00940061 10100 20072 53016 $
Loading
Personal Weather Stations






























Interactive Weather Map
Tropical Storm Tracking
New forecast layout! Learn more

10-Day Weather Forecast

Advertisements
Track Severe Weather on mobile